createdAt,value
2019-05-12T00:01:14.538Z,102991.15
2019-05-12T00:04:08.256Z,102988.47
2019-05-12T00:06:58.664Z,102988.47
2019-05-12T00:09:51.632Z,102987.13
2019-05-12T00:16:02.560Z,102983.65
2019-05-12T00:18:59.820Z,102981.44
2019-05-12T00:21:50.516Z,102993.48
2019-05-12T00:24:47.906Z,102990.37
2019-05-12T00:27:42.416Z,102990.37
2019-05-12T00:30:44.238Z,102987.25
2019-05-12T00:33:38.599Z,102990.37
2019-05-12T00:36:35.184Z,102986.81
2019-05-12T00:39:27.897Z,102988.16
2019-05-12T00:42:19.614Z,102998.02
2019-05-12T00:45:12.295Z,103004.70
2019-05-12T00:48:05.491Z,103008.27
2019-05-12T00:50:58.522Z,103008.30
2019-05-12T00:53:58.036Z,103012.81
2019-05-12T00:56:51.814Z,103016.41
2019-05-12T00:59:47.982Z,103010.68
2019-05-12T01:02:40.607Z,103012.02
2019-05-12T01:05:33.330Z,103015.59
2019-05-12T01:08:30.628Z,103019.22
2019-05-12T01:11:23.596Z,103021.92
2019-05-12T01:14:18.476Z,103029.53
2019-05-12T01:17:09.674Z,103029.56
2019-05-12T01:20:00.305Z,103031.36
2019-05-12T01:22:52.485Z,103027.43
2019-05-12T01:25:50.744Z,103029.25
2019-05-12T01:28:42.674Z,103031.54
2019-05-12T01:31:37.812Z,103038.72
2019-05-12T01:34:29.760Z,103044.98
2019-05-12T01:37:28.063Z,103054.83
2019-05-12T01:40:19.059Z,103055.75
2019-05-12T01:43:08.910Z,103060.66
2019-05-12T01:46:03.529Z,103066.00
2019-05-12T01:48:54.948Z,103067.83
2019-05-12T01:51:47.670Z,103067.84
2019-05-12T01:54:38.035Z,103074.53
2019-05-12T01:57:31.087Z,103073.22
2019-05-12T02:00:22.586Z,103086.57
2019-05-12T02:03:13.476Z,103086.58
2019-05-12T02:06:03.592Z,103084.37
2019-05-12T02:08:59.532Z,103096.39
2019-05-12T02:11:51.235Z,103097.75
2019-05-12T02:14:42.032Z,103100.45
2019-05-12T02:17:31.423Z,103106.23
2019-05-12T02:20:21.512Z,103111.58
2019-05-12T02:23:12.190Z,103112.92
2019-05-12T02:26:03.942Z,103114.73
2019-05-12T02:28:58.445Z,103123.62
2019-05-12T02:31:50.293Z,103121.41
2019-05-12T02:34:41.023Z,103129.45
2019-05-12T02:37:35.801Z,103127.25
2019-05-12T02:40:25.414Z,103135.30
2019-05-12T02:43:19.914Z,103140.68
2019-05-12T02:46:09.965Z,103147.86
2019-05-12T02:49:00.089Z,103146.11
2019-05-12T02:51:50.037Z,103152.80
2019-05-12T02:54:54.485Z,103152.84
2019-05-12T02:57:34.205Z,103152.85
2019-05-12T03:00:24.242Z,103156.88
2019-05-12T03:03:16.377Z,103160.05
2019-05-12T03:06:06.395Z,103167.66
2019-05-12T03:08:55.243Z,103166.79
2019-05-12T03:11:45.733Z,103176.17
2019-05-12T03:14:40.176Z,103181.11
2019-05-12T03:17:25.716Z,103184.70
2019-05-12T03:20:16.064Z,103190.08
2019-05-12T03:23:06.771Z,103190.55
2019-05-12T03:25:56.733Z,103198.59
2019-05-12T03:28:46.596Z,103198.19
2019-05-12T03:31:41.296Z,103194.22
2019-05-12T03:34:29.775Z,103198.70
2019-05-12T03:37:19.673Z,103204.51
2019-05-12T03:40:09.561Z,103216.53
2019-05-12T03:42:58.739Z,103219.69
2019-05-12T03:45:48.494Z,103219.27
2019-05-12T03:48:39.689Z,103224.18
2019-05-12T03:51:29.922Z,103221.98
2019-05-12T03:54:24.388Z,103232.67
2019-05-12T03:57:14.977Z,103237.59
2019-05-12T04:00:05.433Z,103241.59
2019-05-12T04:02:56.441Z,103247.42
2019-05-12T04:05:49.309Z,103256.31
2019-05-12T04:08:38.699Z,103262.12
2019-05-12T04:11:28.095Z,103271.45
2019-05-12T04:14:18.456Z,103275.92
2019-05-12T04:17:08.829Z,103280.83
2019-05-12T04:19:59.175Z,103283.50
2019-05-12T04:22:49.007Z,103283.97
2019-05-12T04:25:51.216Z,103283.95
2019-05-12T04:28:35.126Z,103291.09
2019-05-12T04:31:24.895Z,103294.21
2019-05-12T04:34:19.160Z,103292.44
2019-05-12T04:37:11.016Z,103296.88
2019-05-12T04:40:00.531Z,103298.68
2019-05-12T04:42:49.206Z,103302.23
2019-05-12T04:45:37.941Z,103299.58
2019-05-12T04:48:27.209Z,103301.80
2019-05-12T04:51:17.734Z,103307.58
2019-05-12T04:54:07.559Z,103309.80
2019-05-12T04:56:56.970Z,103312.94
2019-05-12T04:59:47.307Z,103310.73
2019-05-12T05:02:36.738Z,103312.94
2019-05-12T05:05:26.751Z,103318.27
2019-05-12T05:08:19.641Z,103320.47
2019-05-12T05:11:08.529Z,103325.36
2019-05-12T05:13:59.046Z,103322.23
2019-05-12T05:16:50.068Z,103327.14
2019-05-12T05:19:40.023Z,103338.22
2019-05-12T05:22:33.201Z,103339.98
2019-05-12T05:25:23.670Z,103341.77
2019-05-12T05:28:14.591Z,103350.66
2019-05-12T05:31:04.582Z,103352.84
2019-05-12T05:33:55.757Z,103355.95
2019-05-12T05:36:45.270Z,103361.70
2019-05-12T05:39:43.180Z,103364.36
2019-05-12T05:42:30.691Z,103378.59
2019-05-12T05:45:23.344Z,103379.45
2019-05-12T05:48:10.260Z,103385.23
2019-05-12T05:51:06.769Z,103390.09
2019-05-12T05:53:54.035Z,103386.53
2019-05-12T05:56:50.714Z,103390.95
2019-05-12T05:59:36.862Z,103391.36
2019-05-12T06:02:39.407Z,103397.53
2019-05-12T06:05:26.314Z,103399.25
2019-05-12T06:08:20.896Z,103398.73
2019-05-12T06:11:13.815Z,103404.88
2019-05-12T06:14:10.771Z,103413.69
2019-05-12T06:16:53.822Z,103412.73
2019-05-12T06:19:43.861Z,103429.16
2019-05-12T06:22:34.327Z,103434.88
2019-05-12T06:25:26.439Z,103425.45
2019-05-12T06:28:16.422Z,103425.83
2019-05-12T06:31:07.456Z,103432.47
2019-05-12T06:33:57.152Z,103432.87
2019-05-12T06:36:47.257Z,103436.82
2019-05-12T06:39:37.651Z,103444.36
2019-05-12T06:42:27.161Z,103442.52
2019-05-12T06:45:20.281Z,103451.39
2019-05-12T06:48:11.087Z,103449.56
2019-05-12T06:51:00.125Z,103460.17
2019-05-12T06:53:50.602Z,103453.87
2019-05-12T06:56:40.341Z,103454.23
2019-05-12T06:59:33.871Z,103464.81
2019-05-12T07:02:24.479Z,103457.51
2019-05-12T07:05:15.442Z,103464.00
2019-05-12T07:08:06.099Z,103468.20
2019-05-12T07:11:01.824Z,103470.26
2019-05-12T07:13:45.802Z,103478.13
2019-05-12T07:16:35.033Z,103486.02
2019-05-12T07:19:25.683Z,103484.45
2019-05-12T07:22:21.970Z,103489.08
2019-05-12T07:25:08.485Z,103494.64
2019-05-12T07:28:00.778Z,103492.61
2019-05-12T07:30:50.525Z,103492.36
2019-05-12T07:33:41.912Z,103501.11
2019-05-12T07:36:33.360Z,103490.56
2019-05-12T07:39:26.822Z,103494.70
2019-05-12T07:42:16.504Z,103498.33
2019-05-12T07:45:11.542Z,103510.13
2019-05-12T07:48:08.152Z,103509.45
2019-05-12T07:51:00.421Z,103505.92
2019-05-12T07:53:55.174Z,103506.38
2019-05-12T07:56:41.005Z,103504.16
2019-05-12T07:59:38.784Z,103522.63
2019-05-12T08:02:31.424Z,103532.19
2019-05-12T08:05:19.772Z,103528.33
2019-05-12T08:08:10.671Z,103528.90
2019-05-12T08:10:58.010Z,103529.84
2019-05-12T08:13:47.841Z,103520.45
2019-05-12T08:16:38.173Z,103518.13
2019-05-12T08:19:28.762Z,103522.34
2019-05-12T08:22:19.006Z,103521.73
2019-05-12T08:25:10.424Z,103527.98
2019-05-12T08:28:12.321Z,103526.63
2019-05-12T08:30:52.697Z,103536.41
2019-05-12T08:33:43.823Z,103533.20
2019-05-12T08:36:34.968Z,103531.20
2019-05-12T08:39:26.352Z,103539.64
2019-05-12T08:42:18.630Z,103550.66
2019-05-12T08:45:15.209Z,103559.18
2019-05-12T08:48:03.859Z,103567.48
2019-05-12T08:51:05.285Z,103575.06
2019-05-12T08:54:02.585Z,103579.31
2019-05-12T08:56:51.150Z,103584.48
2019-05-12T08:59:40.046Z,103581.83
2019-05-12T09:02:34.909Z,103577.55
2019-05-12T09:05:38.062Z,103587.22
2019-05-12T09:08:21.222Z,103576.16
2019-05-12T09:11:16.932Z,103587.52
2019-05-12T09:14:07.156Z,103583.53
2019-05-12T09:17:02.741Z,103586.13
2019-05-12T09:20:03.635Z,103582.46
2019-05-12T09:23:00.685Z,103587.75
2019-05-12T09:25:49.784Z,103587.11
2019-05-12T09:28:47.477Z,103594.18
2019-05-12T09:31:33.658Z,103603.32
2019-05-12T09:34:23.593Z,103606.39
2019-05-12T09:37:14.272Z,103601.20
2019-05-12T09:40:04.764Z,103604.08
2019-05-12T09:42:55.022Z,103610.61
2019-05-12T09:45:52.087Z,103614.85
2019-05-12T09:48:45.634Z,103612.98
2019-05-12T09:51:41.243Z,103617.40
2019-05-12T09:54:35.419Z,103616.36
2019-05-12T09:57:18.135Z,103616.48
2019-05-12T10:00:08.675Z,103623.19
2019-05-12T10:03:00.646Z,103621.28
2019-05-12T10:05:53.412Z,103619.32
2019-05-12T10:08:43.643Z,103614.65
2019-05-12T10:11:35.700Z,103615.91
2019-05-12T10:14:28.821Z,103623.46
2019-05-12T10:17:20.220Z,103622.88
2019-05-12T10:20:11.046Z,103630.03
2019-05-12T10:23:01.319Z,103630.19
2019-05-12T10:25:51.094Z,103633.98
2019-05-12T10:28:43.733Z,103625.90
2019-05-12T10:31:39.236Z,103632.16
2019-05-12T10:34:29.248Z,103616.88
2019-05-12T10:37:25.380Z,103625.11
2019-05-12T10:40:17.474Z,103630.32
2019-05-12T10:43:08.931Z,103630.53
2019-05-12T10:46:00.225Z,103636.52
2019-05-12T10:48:53.941Z,103638.54
2019-05-12T10:51:47.587Z,103646.29
2019-05-12T10:54:43.309Z,103639.62
2019-05-12T10:57:36.327Z,103644.66
2019-05-12T11:00:34.160Z,103643.58
2019-05-12T11:03:27.344Z,103638.98
2019-05-12T11:06:20.758Z,103642.25
2019-05-12T11:09:14.953Z,103644.92
2019-05-12T11:12:24.415Z,103646.39
2019-05-12T11:15:13.639Z,103659.55
2019-05-12T11:18:25.170Z,103659.47
2019-05-12T11:21:13.645Z,103659.70
2019-05-12T11:24:10.814Z,103652.54
2019-05-12T11:27:03.915Z,103655.15
2019-05-12T11:30:16.751Z,103657.80
2019-05-12T11:33:09.232Z,103664.45
2019-05-12T11:36:05.962Z,103662.66
2019-05-12T11:38:59.691Z,103662.34
2019-05-12T11:42:00.505Z,103655.50
2019-05-12T11:44:59.390Z,103658.67
2019-05-12T11:47:59.128Z,103651.62
2019-05-12T11:50:54.674Z,103661.70
2019-05-12T11:53:53.543Z,103661.33
2019-05-12T11:56:46.451Z,103658.88
2019-05-12T11:59:35.898Z,103665.55
2019-05-12T12:02:30.276Z,103680.48
2019-05-12T12:05:19.021Z,103681.58
2019-05-12T12:08:09.486Z,103677.92
2019-05-12T12:11:03.840Z,103677.86
2019-05-12T12:14:00.386Z,103675.29
2019-05-12T12:16:50.318Z,103678.76
2019-05-12T12:19:48.527Z,103687.24
2019-05-12T12:22:47.607Z,103694.67
2019-05-12T12:25:47.806Z,103692.75
2019-05-12T12:28:35.760Z,103699.84
2019-05-12T12:31:34.705Z,103695.01
2019-05-12T12:34:29.761Z,103692.08
2019-05-12T12:37:18.762Z,103713.17
2019-05-12T12:40:08.274Z,103701.09
2019-05-12T12:42:58.840Z,103706.27
2019-05-12T12:46:18.221Z,103715.22
2019-05-12T12:49:10.362Z,103712.70
2019-05-12T12:51:58.484Z,103718.06
2019-05-12T12:54:50.073Z,103717.31
2019-05-12T12:57:46.519Z,103719.83
2019-05-12T13:00:47.952Z,103725.30
2019-05-12T13:03:37.117Z,103715.84
2019-05-12T13:06:28.617Z,103729.64
2019-05-12T13:09:24.545Z,103722.88
2019-05-12T13:12:19.593Z,103737.59
2019-05-12T13:15:14.400Z,103732.03
2019-05-12T13:18:16.812Z,103736.97
2019-05-12T13:21:03.388Z,103735.67
2019-05-12T13:24:03.628Z,103740.47
2019-05-12T13:26:54.310Z,103737.73
2019-05-12T13:29:50.535Z,103755.09
2019-05-12T13:32:41.094Z,103746.89
2019-05-12T13:35:34.190Z,103744.73
2019-05-12T13:38:30.418Z,103751.89
2019-05-12T13:41:20.226Z,103753.93
2019-05-12T13:44:09.902Z,103765.45
2019-05-12T13:46:59.585Z,103768.95
2019-05-12T13:49:49.011Z,103778.30
2019-05-12T13:52:38.497Z,103767.53
2019-05-12T13:55:27.593Z,103777.98
2019-05-12T13:58:17.080Z,103778.05
2019-05-12T14:01:19.947Z,103767.88
2019-05-12T14:03:57.063Z,103790.42
2019-05-12T14:06:46.222Z,103789.16
2019-05-12T14:09:35.319Z,103786.18
2019-05-12T14:12:24.563Z,103791.14
2019-05-12T14:15:14.392Z,103784.66
2019-05-12T14:18:03.850Z,103788.37
2019-05-12T14:20:58.471Z,103778.42
2019-05-12T14:23:44.133Z,103792.08
2019-05-12T14:26:33.445Z,103797.28
2019-05-12T14:29:26.558Z,103789.77
2019-05-12T14:32:17.602Z,103778.29
2019-05-12T14:35:04.305Z,103788.63
2019-05-12T14:37:54.172Z,103790.80
2019-05-12T14:40:43.614Z,103785.43
2019-05-12T14:43:34.064Z,103797.62
2019-05-12T14:46:24.198Z,103797.62
2019-05-12T14:49:14.195Z,103793.55
2019-05-12T14:52:03.657Z,103804.19
2019-05-12T14:54:54.158Z,103800.09
2019-05-12T14:57:45.078Z,103806.63
2019-05-12T15:00:34.444Z,103801.84
2019-05-12T15:03:25.274Z,103812.78
2019-05-12T15:06:14.313Z,103811.62
2019-05-12T15:09:04.834Z,103814.05
2019-05-12T15:11:54.024Z,103815.62
2019-05-12T15:14:43.877Z,103827.81
2019-05-12T15:17:33.796Z,103821.56
2019-05-12T15:20:24.103Z,103816.86
2019-05-12T15:23:14.404Z,103822.92
2019-05-12T15:26:09.535Z,103819.96
2019-05-12T15:28:55.907Z,103825.02
2019-05-12T15:31:53.099Z,103826.58
2019-05-12T15:34:37.272Z,103815.16
2019-05-12T15:37:33.841Z,103819.85
2019-05-12T15:40:19.642Z,103811.17
2019-05-12T15:43:09.397Z,103829.91
2019-05-12T15:45:59.762Z,103830.09
2019-05-12T15:48:54.571Z,103839.89
2019-05-12T15:51:53.846Z,103837.16
2019-05-12T15:54:45.831Z,103834.56
2019-05-12T15:57:33.815Z,103832.83
2019-05-12T16:00:27.142Z,103835.16
2019-05-12T16:03:16.580Z,103841.02
2019-05-12T16:06:11.852Z,103841.42
2019-05-12T16:09:03.978Z,103840.91
2019-05-12T16:11:54.018Z,103842.36
2019-05-12T16:14:44.205Z,103861.31
2019-05-12T16:17:34.258Z,103850.18
2019-05-12T16:20:23.064Z,103848.62
2019-05-12T16:23:17.146Z,103850.02
2019-05-12T16:26:11.008Z,103860.97
2019-05-12T16:29:07.164Z,103865.38
2019-05-12T16:32:01.186Z,103879.84
2019-05-12T16:34:51.349Z,103873.98
2019-05-12T16:37:43.978Z,103873.38
2019-05-12T16:40:39.587Z,103875.27
2019-05-12T16:43:29.509Z,103879.84
2019-05-12T16:46:20.492Z,103879.96
2019-05-12T16:49:10.229Z,103884.95
2019-05-12T16:52:03.492Z,103885.41
2019-05-12T16:54:51.360Z,103880.16
2019-05-12T16:57:51.167Z,103887.31
2019-05-12T17:00:45.221Z,103894.42
2019-05-12T17:03:39.095Z,103889.09
2019-05-12T17:06:35.182Z,103891.91
2019-05-12T17:09:33.191Z,103892.98
2019-05-12T17:12:32.217Z,103897.31
2019-05-12T17:15:23.538Z,103901.59
2019-05-12T17:18:16.986Z,103892.39
2019-05-12T17:21:08.800Z,103891.56
2019-05-12T17:24:03.797Z,103887.20
2019-05-12T17:26:54.896Z,103902.99
2019-05-12T17:29:47.276Z,103913.44
2019-05-12T17:32:37.594Z,103908.95
2019-05-12T17:35:31.599Z,103911.78
2019-05-12T17:38:25.463Z,103913.50
2019-05-12T17:41:18.099Z,103915.37
2019-05-12T17:44:10.460Z,103916.97
2019-05-12T17:47:00.443Z,103915.05
2019-05-12T17:49:53.871Z,103920.86
2019-05-12T17:52:50.427Z,103921.25
2019-05-12T17:55:50.997Z,103923.45
2019-05-12T17:58:44.211Z,103930.91
2019-05-12T18:01:31.418Z,103928.45
2019-05-12T18:04:26.472Z,103941.35
2019-05-12T18:07:19.236Z,103935.27
2019-05-12T18:10:15.021Z,103933.93
2019-05-12T18:13:04.180Z,103942.07
2019-05-12T18:15:54.080Z,103945.86
2019-05-12T18:18:43.662Z,103943.14
2019-05-12T18:21:36.641Z,103961.39
2019-05-12T18:24:25.969Z,103952.53
2019-05-12T18:27:16.147Z,103953.86
2019-05-12T18:30:05.459Z,103956.78
2019-05-12T18:33:04.168Z,103953.95
2019-05-12T18:35:45.706Z,103956.08
2019-05-12T18:38:35.400Z,103966.89
2019-05-12T18:41:33.660Z,103962.95
2019-05-12T18:44:31.277Z,103956.55
2019-05-12T18:47:31.823Z,103961.38
2019-05-12T18:50:15.069Z,103962.53
2019-05-12T18:53:04.934Z,103967.88
2019-05-12T18:55:55.570Z,103965.03
2019-05-12T18:58:46.143Z,103972.20
2019-05-12T19:01:35.771Z,103977.91
2019-05-12T19:04:33.953Z,103975.43
2019-05-12T19:07:39.746Z,103985.56
2019-05-12T19:10:33.337Z,103984.03
2019-05-12T19:13:26.764Z,103986.53
2019-05-12T19:16:18.156Z,103986.78
2019-05-12T19:19:24.390Z,103989.28
2019-05-12T19:22:15.180Z,103993.95
2019-05-12T19:25:05.170Z,103987.95
2019-05-12T19:28:05.369Z,103995.31
2019-05-12T19:30:50.162Z,103990.14
2019-05-12T19:33:43.871Z,103994.88
2019-05-12T19:36:35.945Z,104002.22
2019-05-12T19:39:30.425Z,104006.50
2019-05-12T19:42:24.443Z,104003.97
2019-05-12T19:45:21.422Z,104005.95
2019-05-12T19:48:07.313Z,104007.89
2019-05-12T19:51:05.883Z,104010.33
2019-05-12T19:53:52.867Z,104013.64
2019-05-12T19:56:43.512Z,104020.08
2019-05-12T19:59:35.952Z,104017.97
2019-05-12T20:02:29.792Z,104023.49
2019-05-12T20:05:24.813Z,104017.34
2019-05-12T20:08:14.793Z,104019.26
2019-05-12T20:11:04.578Z,104018.52
2019-05-12T20:13:56.233Z,104023.11
2019-05-12T20:16:50.615Z,104018.72
2019-05-12T20:19:45.524Z,104025.07
2019-05-12T20:22:39.135Z,104019.81
2019-05-12T20:25:34.327Z,104025.75
2019-05-12T20:28:24.496Z,104026.28
2019-05-12T20:31:26.545Z,104026.39
2019-05-12T20:34:18.143Z,104024.67
2019-05-12T20:37:16.818Z,104031.94
2019-05-12T20:40:13.452Z,104031.61
2019-05-12T20:43:09.342Z,104032.13
2019-05-12T20:45:58.195Z,104033.55
2019-05-12T20:48:53.969Z,104040.31
2019-05-12T20:51:44.400Z,104040.39
2019-05-12T20:54:34.508Z,104036.84
2019-05-12T20:57:24.513Z,104043.17
2019-05-12T21:00:15.374Z,104040.55
2019-05-12T21:03:08.885Z,104051.78
2019-05-12T21:06:04.341Z,104050.51
2019-05-12T21:08:56.808Z,104048.33
2019-05-12T21:11:46.878Z,104043.88
2019-05-12T21:14:36.581Z,104052.88
2019-05-12T21:17:39.626Z,104047.58
2019-05-12T21:20:18.848Z,104052.99
2019-05-12T21:23:09.679Z,104058.81
2019-05-12T21:26:00.310Z,104058.00
2019-05-12T21:28:53.874Z,104057.11
2019-05-12T21:31:44.701Z,104060.73
2019-05-12T21:34:39.203Z,104057.65
2019-05-12T21:37:45.124Z,104053.20
2019-05-12T21:40:30.598Z,104059.06
2019-05-12T21:43:21.461Z,104067.56
2019-05-12T21:46:15.302Z,104061.33
2019-05-12T21:49:10.336Z,104068.53
2019-05-12T21:52:03.062Z,104067.23
2019-05-12T21:54:55.408Z,104060.98
2019-05-12T21:57:44.087Z,104069.06
2019-05-12T22:00:40.921Z,104063.73
2019-05-12T22:03:29.101Z,104075.37
2019-05-12T22:06:24.648Z,104066.91
2019-05-12T22:09:14.618Z,104072.72
2019-05-12T22:12:03.904Z,104074.09
2019-05-12T22:14:54.260Z,104076.77
2019-05-12T22:18:04.736Z,104083.45
2019-05-12T22:21:00.958Z,104075.45
2019-05-12T22:23:51.297Z,104071.89
2019-05-12T22:26:40.545Z,104074.58
2019-05-12T22:29:31.317Z,104078.17
2019-05-12T22:32:25.312Z,104081.75
2019-05-12T22:35:13.243Z,104080.43
2019-05-12T22:38:09.211Z,104080.87
2019-05-12T22:40:57.740Z,104085.38
2019-05-12T22:43:46.211Z,104089.41
2019-05-12T22:46:36.470Z,104089.84
2019-05-12T22:49:26.011Z,104093.42
2019-05-12T22:52:17.467Z,104092.52
2019-05-12T22:55:07.200Z,104090.73
2019-05-12T22:57:57.375Z,104091.66
2019-05-12T23:00:51.373Z,104096.11
2019-05-12T23:03:45.388Z,104099.67
2019-05-12T23:06:35.875Z,104098.34
2019-05-12T23:09:25.936Z,104101.03
2019-05-12T23:12:18.502Z,104104.59
2019-05-12T23:15:08.990Z,104107.27
2019-05-12T23:18:04.046Z,104105.03
2019-05-12T23:20:54.145Z,104117.49
2019-05-12T23:23:49.808Z,104117.49
2019-05-12T23:26:42.195Z,104114.36
2019-05-12T23:29:33.777Z,104109.47
2019-05-12T23:32:24.300Z,104107.67
2019-05-12T23:35:14.531Z,104111.23
2019-05-12T23:38:04.632Z,104108.98
2019-05-12T23:40:55.214Z,104112.11
2019-05-12T23:43:45.482Z,104108.09
2019-05-12T23:46:36.908Z,104113.86
2019-05-12T23:49:29.390Z,104121.00
2019-05-12T23:52:24.052Z,104115.62
2019-05-12T23:55:17.369Z,104116.95
2019-05-12T23:58:08.272Z,104124.05
